createdAt,value
2023-04-07T00:00:38.854Z,5.10
2023-04-07T00:03:19.607Z,4.70
2023-04-07T00:05:47.046Z,4.30
2023-04-07T00:08:14.130Z,4.70
2023-04-07T00:10:41.090Z,3.10
2023-04-07T00:13:11.552Z,4.40
2023-04-07T00:15:40.358Z,5.30
2023-04-07T00:18:07.276Z,3.60
2023-04-07T00:20:35.166Z,4.30
2023-04-07T00:23:01.804Z,3.80
2023-04-07T00:25:28.341Z,3.20
2023-04-07T00:27:55.651Z,3.40
2023-04-07T00:30:23.277Z,5.00
2023-04-07T00:32:51.272Z,3.00
2023-04-07T00:35:18.333Z,2.60
2023-04-07T00:37:45.122Z,3.00
2023-04-07T00:40:11.953Z,4.20
2023-04-07T00:42:39.629Z,3.80
2023-04-07T00:45:07.103Z,4.00
2023-04-07T00:47:33.967Z,4.00
2023-04-07T00:50:04.444Z,5.00
2023-04-07T00:52:33.356Z,3.70
2023-04-07T00:55:00.615Z,5.10
2023-04-07T00:57:27.473Z,5.60
2023-04-07T00:59:55.781Z,4.80
2023-04-07T01:02:58.441Z,5.10
2023-04-07T01:05:38.294Z,3.40
2023-04-07T01:08:35.104Z,3.70
2023-04-07T01:11:24.613Z,5.10
2023-04-07T01:13:53.805Z,6.00
2023-04-07T01:16:50.437Z,5.10
2023-04-07T01:19:39.588Z,4.10
2023-04-07T01:22:17.205Z,3.40
2023-04-07T01:25:17.885Z,3.50
2023-04-07T01:27:53.806Z,4.00
2023-04-07T01:30:29.268Z,5.40
2023-04-07T01:32:59.812Z,4.50
2023-04-07T01:35:31.823Z,5.90
2023-04-07T01:38:01.356Z,3.90
2023-04-07T01:40:29.616Z,5.10
2023-04-07T01:42:58.433Z,5.70
2023-04-07T01:45:28.115Z,5.80
2023-04-07T01:47:55.499Z,3.80
2023-04-07T01:50:23.094Z,3.10
2023-04-07T01:52:50.694Z,7.20
2023-04-07T01:55:19.360Z,5.40
2023-04-07T01:57:46.635Z,3.90
2023-04-07T02:00:14.057Z,2.10
2023-04-07T02:02:46.516Z,3.50
2023-04-07T02:05:18.811Z,3.20
2023-04-07T02:08:03.897Z,2.80
2023-04-07T02:10:36.951Z,2.50
2023-04-07T02:13:06.476Z,2.90
2023-04-07T02:15:35.406Z,2.90
2023-04-07T02:18:04.658Z,2.40
2023-04-07T02:20:32.507Z,4.90
2023-04-07T02:22:59.520Z,4.00
2023-04-07T02:25:29.690Z,3.10
2023-04-07T02:27:58.805Z,3.70
2023-04-07T02:30:27.371Z,3.10
2023-04-07T02:32:54.378Z,4.20
2023-04-07T02:35:21.315Z,1.70
2023-04-07T02:37:49.325Z,6.10
2023-04-07T02:40:16.591Z,4.40
2023-04-07T02:42:44.319Z,2.90
2023-04-07T02:45:13.205Z,4.70
2023-04-07T02:47:39.995Z,3.30
2023-04-07T02:50:07.545Z,2.90
2023-04-07T02:52:35.185Z,3.00
2023-04-07T02:55:02.205Z,2.90
2023-04-07T02:57:28.596Z,3.20
2023-04-07T02:59:57.330Z,3.50
2023-04-07T03:02:25.455Z,3.20
2023-04-07T03:04:52.850Z,3.10
2023-04-07T03:07:19.541Z,3.50
2023-04-07T03:09:46.683Z,3.90
2023-04-07T03:12:13.391Z,2.60
2023-04-07T03:14:40.344Z,2.60
2023-04-07T03:17:07.511Z,3.10
2023-04-07T03:19:34.042Z,2.60
2023-04-07T03:22:01.833Z,2.80
2023-04-07T03:24:28.316Z,3.00
2023-04-07T03:26:55.590Z,3.60
2023-04-07T03:29:26.334Z,2.70
2023-04-07T03:31:53.740Z,2.60
2023-04-07T03:34:21.130Z,2.40
2023-04-07T03:36:47.694Z,2.10
2023-04-07T03:39:14.347Z,1.80
2023-04-07T03:41:42.914Z,2.40
2023-04-07T03:44:10.185Z,2.40
2023-04-07T03:46:37.684Z,3.50
2023-04-07T03:49:10.101Z,2.10
2023-04-07T03:51:36.609Z,2.00
2023-04-07T03:54:03.716Z,1.70
2023-04-07T03:56:30.525Z,2.00
2023-04-07T03:58:58.153Z,3.40
2023-04-07T04:01:24.848Z,2.80
2023-04-07T04:03:51.787Z,2.50
2023-04-07T04:06:18.630Z,2.60
2023-04-07T04:08:46.681Z,3.80
2023-04-07T04:11:13.533Z,2.90
2023-04-07T04:13:40.496Z,2.10
2023-04-07T04:16:15.401Z,2.50
2023-04-07T04:18:42.044Z,2.30
2023-04-07T04:21:09.527Z,2.20
2023-04-07T04:23:36.711Z,2.50
2023-04-07T04:26:03.292Z,2.50
2023-04-07T04:28:30.702Z,2.10
2023-04-07T04:30:58.420Z,2.30
2023-04-07T04:33:25.079Z,2.40
2023-04-07T04:35:51.707Z,2.60
2023-04-07T04:38:18.861Z,2.30
2023-04-07T04:40:45.897Z,2.10
2023-04-07T04:43:13.045Z,1.50
2023-04-07T04:45:39.427Z,2.80
2023-04-07T04:48:06.520Z,2.50
2023-04-07T04:50:33.247Z,1.50
2023-04-07T04:52:59.722Z,2.50
2023-04-07T04:55:26.149Z,2.80
2023-04-07T04:57:52.989Z,2.10
2023-04-07T05:00:20.744Z,1.70
2023-04-07T05:02:49.246Z,1.80
2023-04-07T05:05:16.124Z,3.10
2023-04-07T05:07:42.823Z,10.80
2023-04-07T05:10:09.715Z,1.10
2023-04-07T05:12:36.493Z,1.80
2023-04-07T05:15:03.554Z,1.60
2023-04-07T05:17:30.551Z,1.70
2023-04-07T05:19:57.137Z,1.20
2023-04-07T05:22:23.516Z,1.30
2023-04-07T05:24:50.932Z,1.20
2023-04-07T05:27:17.438Z,2.00
2023-04-07T05:29:44.398Z,1.50
2023-04-07T05:32:10.975Z,1.60
2023-04-07T05:34:37.511Z,1.60
2023-04-07T05:37:03.919Z,1.60
2023-04-07T05:39:31.119Z,1.50
2023-04-07T05:41:58.202Z,2.10
2023-04-07T05:44:24.975Z,2.10
2023-04-07T05:46:51.788Z,1.70
2023-04-07T05:49:19.959Z,2.10
2023-04-07T05:51:49.190Z,2.00
2023-04-07T05:54:16.376Z,2.90
2023-04-07T05:56:43.470Z,1.70
2023-04-07T05:59:10.464Z,1.60
2023-04-07T06:01:37.966Z,2.70
2023-04-07T06:04:04.603Z,2.60
2023-04-07T06:06:31.822Z,1.90
2023-04-07T06:08:58.319Z,2.00
2023-04-07T06:11:26.667Z,1.60
2023-04-07T06:13:53.442Z,1.60
2023-04-07T06:16:20.666Z,2.70
2023-04-07T06:18:47.344Z,2.40
2023-04-07T06:21:14.155Z,4.40
2023-04-07T06:23:40.791Z,2.00
2023-04-07T06:26:12.108Z,2.90
2023-04-07T06:28:39.382Z,1.80
2023-04-07T06:31:08.064Z,2.30
2023-04-07T06:33:34.855Z,1.80
2023-04-07T06:36:01.613Z,1.70
2023-04-07T06:38:28.220Z,1.60
2023-04-07T06:40:54.757Z,2.00
2023-04-07T06:43:21.290Z,1.80
2023-04-07T06:45:47.869Z,2.00
2023-04-07T06:48:15.089Z,1.80
2023-04-07T06:53:32.598Z,1.80
2023-04-07T06:56:08.963Z,1.70
2023-04-07T06:58:36.485Z,1.70
2023-04-07T07:01:04.811Z,1.90
2023-04-07T07:03:32.653Z,1.70
2023-04-07T07:06:00.559Z,2.30
2023-04-07T07:08:29.236Z,1.80
2023-04-07T07:10:56.730Z,3.20
2023-04-07T07:13:26.085Z,1.90
2023-04-07T07:15:53.200Z,1.90
2023-04-07T07:18:21.514Z,1.80
2023-04-07T07:20:48.534Z,1.90
2023-04-07T07:23:15.545Z,4.00
2023-04-07T07:25:42.881Z,2.30
2023-04-07T07:28:09.352Z,2.60
2023-04-07T07:30:39.747Z,2.30
2023-04-07T07:33:06.980Z,2.40
2023-04-07T07:35:34.742Z,1.70
2023-04-07T07:38:01.523Z,2.10
2023-04-07T07:40:27.970Z,2.20
2023-04-07T07:42:54.928Z,2.00
2023-04-07T07:45:21.717Z,1.20
2023-04-07T07:47:48.612Z,1.70
2023-04-07T07:50:15.953Z,1.50
2023-04-07T07:52:42.699Z,1.70
2023-04-07T07:55:11.164Z,1.60
2023-04-07T07:57:38.030Z,1.50
2023-04-07T08:00:07.260Z,1.40
2023-04-07T08:02:33.831Z,3.00
2023-04-07T08:05:00.882Z,1.60
2023-04-07T08:07:27.979Z,1.50
2023-04-07T08:09:54.618Z,1.70
2023-04-07T08:12:21.421Z,1.30
2023-04-07T08:14:49.284Z,1.60
2023-04-07T08:17:16.787Z,2.30
2023-04-07T08:19:44.030Z,1.50
2023-04-07T08:22:10.571Z,2.70
2023-04-07T08:24:37.572Z,1.60
2023-04-07T08:27:04.117Z,1.50
2023-04-07T08:29:31.296Z,1.70
2023-04-07T08:31:58.867Z,1.80
2023-04-07T08:34:25.960Z,1.50
2023-04-07T08:36:52.530Z,1.50
2023-04-07T08:39:19.267Z,2.00
2023-04-07T08:41:49.619Z,1.80
2023-04-07T08:44:20.394Z,1.60
2023-04-07T08:46:48.565Z,1.60
2023-04-07T08:49:19.205Z,1.70
2023-04-07T08:51:47.626Z,1.60
2023-04-07T08:54:18.279Z,1.70
2023-04-07T08:56:45.221Z,1.90
2023-04-07T08:59:17.917Z,3.20
2023-04-07T09:01:47.099Z,1.50
2023-04-07T09:04:14.214Z,1.70
2023-04-07T09:06:43.088Z,2.30
2023-04-07T09:09:09.642Z,2.60
2023-04-07T09:11:40.465Z,2.20
2023-04-07T09:14:07.971Z,2.00
2023-04-07T09:16:35.349Z,1.70
2023-04-07T09:19:02.145Z,3.80
2023-04-07T09:21:51.843Z,3.40
2023-04-07T09:24:28.304Z,2.80
2023-04-07T09:27:17.494Z,2.00
2023-04-07T09:29:46.987Z,2.30
2023-04-07T09:32:44.171Z,2.60
2023-04-07T09:35:11.007Z,3.00
2023-04-07T09:37:37.547Z,4.20
2023-04-07T09:40:05.163Z,2.40
2023-04-07T09:42:36.521Z,3.40
2023-04-07T09:45:03.769Z,4.60
2023-04-07T09:47:32.741Z,1.60
2023-04-07T09:50:06.181Z,2.40
2023-04-07T09:52:53.830Z,2.70
2023-04-07T09:55:22.505Z,3.00
2023-04-07T09:57:51.724Z,2.40
2023-04-07T10:00:19.403Z,2.80
2023-04-07T10:02:47.351Z,2.90
2023-04-07T10:05:14.750Z,2.50
2023-04-07T10:07:42.960Z,3.30
2023-04-07T10:10:11.579Z,2.60
2023-04-07T10:12:40.717Z,2.60
2023-04-07T10:15:13.513Z,2.50
2023-04-07T10:17:48.934Z,4.90
2023-04-07T10:20:22.936Z,3.00
2023-04-07T10:22:58.156Z,2.50
2023-04-07T10:25:27.113Z,2.30
2023-04-07T10:28:05.372Z,2.30
2023-04-07T10:30:35.928Z,7.40
2023-04-07T10:33:02.911Z,3.30
2023-04-07T10:36:05.385Z,2.60
2023-04-07T10:38:33.013Z,1.90
2023-04-07T10:40:59.526Z,6.00
2023-04-07T10:43:46.472Z,2.70
2023-04-07T10:46:13.774Z,3.20
2023-04-07T10:48:41.030Z,2.40
2023-04-07T10:51:10.103Z,5.70
2023-04-07T10:54:23.469Z,2.80
2023-04-07T10:57:03.162Z,2.60
2023-04-07T10:59:31.707Z,5.50
2023-04-07T11:02:17.130Z,3.10
2023-04-07T11:04:46.355Z,2.90
2023-04-07T11:07:15.702Z,3.10
2023-04-07T11:09:42.419Z,4.50
2023-04-07T11:12:24.150Z,2.50
2023-04-07T11:14:52.686Z,2.00
2023-04-07T11:17:19.654Z,3.60
2023-04-07T11:19:53.414Z,6.40
2023-04-07T11:24:49.631Z,4.40
2023-04-07T11:27:16.112Z,3.00
2023-04-07T11:29:43.220Z,4.50
2023-04-07T11:32:12.405Z,4.20
2023-04-07T11:34:40.183Z,6.50
2023-04-07T11:37:30.562Z,2.90
2023-04-07T11:40:00.324Z,4.20
2023-04-07T11:42:34.727Z,3.90
2023-04-07T11:45:01.997Z,4.00
2023-04-07T11:47:40.396Z,2.70
2023-04-07T11:50:08.418Z,5.50
2023-04-07T11:52:48.045Z,3.00
2023-04-07T11:55:26.620Z,5.80
2023-04-07T11:57:53.544Z,3.80
2023-04-07T12:00:21.685Z,4.20
2023-04-07T12:02:48.400Z,7.50
2023-04-07T12:05:15.469Z,5.00
2023-04-07T12:07:54.934Z,4.00
2023-04-07T12:10:28.772Z,2.40
2023-04-07T12:12:58.116Z,4.20
2023-04-07T12:15:29.343Z,5.00
2023-04-07T12:17:57.384Z,3.50
2023-04-07T12:20:26.058Z,6.50
2023-04-07T12:22:53.539Z,2.70
2023-04-07T12:25:21.531Z,3.70
2023-04-07T12:27:48.333Z,3.60
2023-04-07T12:30:17.381Z,3.10
2023-04-07T12:32:45.058Z,4.30
2023-04-07T12:35:12.245Z,3.90
2023-04-07T12:37:42.393Z,4.80
2023-04-07T12:40:11.922Z,4.20
2023-04-07T12:42:39.342Z,3.20
2023-04-07T12:45:07.686Z,4.90
2023-04-07T12:47:34.217Z,2.60
2023-04-07T12:50:01.888Z,5.40
2023-04-07T12:52:32.438Z,7.20
2023-04-07T12:54:59.516Z,2.60
2023-04-07T12:57:26.896Z,3.90
2023-04-07T12:59:53.882Z,2.80
2023-04-07T13:02:21.179Z,3.10
2023-04-07T13:04:48.040Z,6.30
2023-04-07T13:07:14.882Z,2.00
2023-04-07T13:09:43.069Z,3.90
2023-04-07T13:12:12.760Z,8.20
2023-04-07T13:14:53.158Z,1.70
2023-04-07T13:17:26.412Z,2.60
2023-04-07T13:19:53.029Z,2.10
2023-04-07T13:22:22.214Z,2.10
2023-04-07T13:24:50.798Z,2.90
2023-04-07T13:27:19.080Z,1.90
2023-04-07T13:29:46.730Z,2.50
2023-04-07T13:32:14.212Z,4.60
2023-04-07T13:34:41.579Z,3.70
2023-04-07T13:37:08.226Z,4.90
2023-04-07T13:39:36.436Z,4.20
2023-04-07T13:42:06.329Z,3.50
2023-04-07T13:44:34.061Z,3.10
2023-04-07T13:47:01.261Z,3.60
2023-04-07T13:49:29.151Z,1.80
2023-04-07T13:51:58.596Z,6.40
2023-04-07T13:54:27.968Z,2.30
2023-04-07T13:56:55.425Z,2.30
2023-04-07T13:59:23.522Z,5.60
2023-04-07T14:01:50.380Z,4.20
2023-04-07T14:04:17.829Z,2.40
2023-04-07T14:06:45.429Z,1.80
2023-04-07T14:09:12.276Z,3.30
2023-04-07T14:11:43.872Z,3.50
2023-04-07T14:14:11.992Z,2.30
2023-04-07T14:16:39.701Z,3.30
2023-04-07T14:19:08.007Z,2.10
2023-04-07T14:21:35.205Z,2.40
2023-04-07T14:24:03.760Z,3.40
2023-04-07T14:26:34.772Z,1.70
2023-04-07T14:29:03.089Z,3.00
2023-04-07T14:31:31.678Z,5.80
2023-04-07T14:33:59.552Z,2.50
2023-04-07T14:36:26.680Z,3.80
2023-04-07T14:38:53.855Z,7.00
2023-04-07T14:41:20.824Z,2.70
2023-04-07T14:43:56.072Z,1.20
2023-04-07T14:46:24.222Z,2.60
2023-04-07T14:48:51.877Z,10.20
2023-04-07T14:51:22.568Z,3.70
2023-04-07T14:53:55.272Z,2.80
2023-04-07T14:56:22.049Z,4.90
2023-04-07T14:58:48.494Z,1.70
2023-04-07T15:01:15.358Z,3.00
2023-04-07T15:03:47.095Z,9.40
2023-04-07T15:06:16.378Z,1.40
2023-04-07T15:08:44.920Z,2.80
2023-04-07T15:11:15.668Z,4.10
2023-04-07T15:13:42.217Z,1.60
2023-04-07T15:16:12.338Z,3.00
2023-04-07T15:18:44.748Z,2.90
2023-04-07T15:21:15.761Z,2.60
2023-04-07T15:23:43.617Z,1.90
2023-04-07T15:26:10.874Z,2.20
2023-04-07T15:28:39.758Z,1.60
2023-04-07T15:31:09.385Z,6.20
2023-04-07T15:33:39.537Z,3.40
2023-04-07T15:36:08.515Z,3.60
2023-04-07T15:38:38.615Z,4.70
2023-04-07T15:41:05.848Z,2.20
2023-04-07T15:43:33.890Z,2.10
2023-04-07T15:46:00.926Z,3.20
2023-04-07T15:48:27.381Z,3.10
2023-04-07T15:50:55.043Z,5.10
2023-04-07T15:53:23.681Z,3.90
2023-04-07T15:55:50.485Z,3.30
2023-04-07T15:58:17.926Z,6.10
2023-04-07T16:00:45.552Z,3.50
2023-04-07T16:03:12.244Z,5.00
2023-04-07T16:05:39.040Z,2.70
2023-04-07T16:08:05.580Z,2.30
2023-04-07T16:10:36.284Z,3.20
2023-04-07T16:13:03.761Z,2.40
2023-04-07T16:15:40.098Z,1.80
2023-04-07T16:18:11.727Z,3.00
2023-04-07T16:20:38.746Z,2.50
2023-04-07T16:23:06.258Z,5.90
2023-04-07T16:25:34.160Z,4.70
2023-04-07T16:28:01.538Z,3.10
2023-04-07T16:30:28.239Z,3.00
2023-04-07T16:32:54.974Z,3.20
2023-04-07T16:35:21.617Z,2.50
2023-04-07T16:37:49.389Z,1.50
2023-04-07T16:40:17.925Z,6.30
2023-04-07T16:42:45.328Z,3.30
2023-04-07T16:45:11.870Z,3.60
2023-04-07T16:47:38.555Z,2.70
2023-04-07T16:50:06.159Z,2.50
2023-04-07T16:52:32.774Z,8.60
2023-04-07T16:55:00.398Z,3.90
2023-04-07T16:57:28.633Z,3.10
2023-04-07T16:59:55.074Z,4.50
2023-04-07T17:02:24.261Z,2.30
2023-04-07T17:04:57.717Z,2.00
2023-04-07T17:07:28.124Z,2.40
2023-04-07T17:09:57.085Z,5.80
2023-04-07T17:12:27.219Z,4.00
2023-04-07T17:14:56.880Z,2.50
2023-04-07T17:17:23.491Z,4.50
2023-04-07T17:19:59.263Z,3.80
2023-04-07T17:22:26.017Z,2.30
2023-04-07T17:24:55.318Z,2.10
2023-04-07T17:27:23.203Z,4.80
2023-04-07T17:29:50.040Z,3.80
2023-04-07T17:32:17.822Z,2.00
2023-04-07T17:34:48.181Z,3.50
2023-04-07T17:37:34.398Z,1.70
2023-04-07T17:40:01.640Z,6.00
2023-04-07T17:42:32.368Z,3.50
2023-04-07T17:45:02.710Z,6.80
2023-04-07T17:47:36.997Z,6.30
2023-04-07T17:50:14.703Z,5.20
2023-04-07T17:52:42.171Z,2.90
2023-04-07T17:55:14.398Z,4.20
2023-04-07T17:57:49.901Z,10.30
2023-04-07T18:00:17.968Z,3.70
2023-04-07T18:02:45.456Z,4.30
2023-04-07T18:05:16.464Z,1.50
2023-04-07T18:07:44.471Z,1.80
2023-04-07T18:10:31.661Z,9.00
2023-04-07T18:13:10.557Z,4.30
2023-04-07T18:15:45.472Z,6.30
2023-04-07T18:18:13.272Z,6.40
2023-04-07T18:20:40.946Z,8.20
2023-04-07T18:23:10.030Z,1.70
2023-04-07T18:25:38.397Z,1.50
2023-04-07T18:28:05.500Z,3.00
2023-04-07T18:30:32.654Z,4.00
2023-04-07T18:33:02.239Z,2.80
2023-04-07T18:35:30.997Z,5.20
2023-04-07T18:37:58.481Z,22.30
2023-04-07T18:40:29.379Z,6.00
2023-04-07T18:42:56.649Z,7.70
2023-04-07T18:45:23.581Z,5.60
2023-04-07T18:47:52.342Z,5.50
2023-04-07T18:50:21.180Z,10.60
2023-04-07T18:52:49.780Z,7.20
2023-04-07T18:55:25.425Z,7.60
2023-04-07T18:58:00.384Z,4.20
2023-04-07T19:00:34.662Z,2.70
2023-04-07T19:03:16.940Z,4.00
2023-04-07T19:05:47.797Z,1.40
2023-04-07T19:08:15.931Z,7.30
2023-04-07T19:10:54.686Z,11.00
2023-04-07T19:13:21.541Z,3.80
2023-04-07T19:15:51.845Z,8.10
2023-04-07T19:18:21.809Z,17.30
2023-04-07T19:20:48.886Z,8.30
2023-04-07T19:23:16.674Z,20.50
2023-04-07T19:25:45.997Z,20.30
2023-04-07T19:28:14.941Z,18.00
2023-04-07T19:30:42.752Z,9.40
2023-04-07T19:33:18.886Z,17.50
2023-04-07T19:35:46.974Z,14.70
2023-04-07T19:38:15.589Z,20.90
2023-04-07T19:40:47.334Z,17.20
2023-04-07T19:43:16.505Z,22.40
2023-04-07T19:45:49.754Z,11.20
2023-04-07T19:48:21.875Z,11.80
2023-04-07T19:50:50.755Z,15.00
2023-04-07T19:53:18.273Z,17.10
2023-04-07T19:55:48.508Z,19.70
2023-04-07T19:58:18.422Z,20.30
2023-04-07T20:00:51.238Z,23.20
2023-04-07T20:03:30.729Z,24.50
2023-04-07T20:06:00.418Z,12.50
2023-04-07T20:08:26.884Z,10.60
2023-04-07T20:10:54.873Z,19.40
2023-04-07T20:13:24.783Z,18.80
2023-04-07T20:15:53.286Z,17.00
2023-04-07T20:18:22.796Z,81.20
2023-04-07T20:20:50.143Z,36.70
2023-04-07T20:23:26.733Z,26.50
2023-04-07T20:25:53.359Z,25.60
2023-04-07T20:28:22.515Z,23.50
2023-04-07T20:30:49.235Z,14.10
2023-04-07T20:33:17.786Z,18.90
2023-04-07T20:35:46.673Z,21.40
2023-04-07T20:38:15.774Z,36.40
2023-04-07T20:40:42.564Z,22.30
2023-04-07T20:43:10.069Z,32.70
2023-04-07T20:45:40.992Z,24.50
2023-04-07T20:48:22.212Z,22.60
2023-04-07T20:50:54.026Z,23.60
2023-04-07T20:53:22.060Z,17.20
2023-04-07T20:55:52.943Z,14.70
2023-04-07T20:58:29.625Z,13.50
2023-04-07T21:01:01.601Z,12.10
2023-04-07T21:03:30.130Z,12.90
2023-04-07T21:05:59.380Z,7.20
2023-04-07T21:08:30.292Z,12.40
2023-04-07T21:10:59.049Z,39.50
2023-04-07T21:13:28.495Z,22.90
2023-04-07T21:15:57.278Z,12.90
2023-04-07T21:18:25.970Z,10.70
2023-04-07T21:20:52.523Z,4.10
2023-04-07T21:23:19.977Z,12.80
2023-04-07T21:25:48.072Z,10.20
2023-04-07T21:28:15.630Z,9.60
2023-04-07T21:30:44.497Z,10.10
2023-04-07T21:33:16.483Z,14.70
2023-04-07T21:35:44.956Z,15.00
2023-04-07T21:38:15.300Z,20.20
2023-04-07T21:40:43.069Z,19.40
2023-04-07T21:43:09.584Z,15.50
2023-04-07T21:45:35.928Z,11.00
2023-04-07T21:48:06.090Z,14.40
2023-04-07T21:50:33.338Z,9.70
2023-04-07T21:53:00.127Z,16.00
2023-04-07T21:55:28.093Z,7.80
2023-04-07T21:57:55.253Z,8.70
2023-04-07T22:00:21.896Z,15.80
2023-04-07T22:02:50.690Z,9.10
2023-04-07T22:05:18.672Z,8.90
2023-04-07T22:07:53.158Z,8.80
2023-04-07T22:10:20.103Z,7.40
2023-04-07T22:12:48.114Z,8.90
2023-04-07T22:15:15.633Z,6.60
2023-04-07T22:17:43.146Z,6.60
2023-04-07T22:20:13.558Z,5.10
2023-04-07T22:22:41.396Z,5.50
2023-04-07T22:25:08.618Z,5.40
2023-04-07T22:27:36.117Z,4.30
2023-04-07T22:30:03.917Z,6.30
2023-04-07T22:32:31.237Z,6.30
2023-04-07T22:35:00.104Z,3.40
2023-04-07T22:37:27.181Z,3.80
2023-04-07T22:39:56.200Z,5.80
2023-04-07T22:42:22.974Z,8.00
2023-04-07T22:44:49.349Z,8.10
2023-04-07T22:47:19.346Z,2.40
2023-04-07T22:49:46.929Z,3.60
2023-04-07T22:52:16.229Z,10.10
2023-04-07T22:54:44.185Z,6.30
2023-04-07T22:57:10.711Z,4.70
2023-04-07T22:59:37.634Z,7.80
2023-04-07T23:02:04.225Z,7.70
2023-04-07T23:04:31.080Z,3.90
2023-04-07T23:06:57.872Z,4.00
2023-04-07T23:09:25.170Z,6.10
2023-04-07T23:11:51.560Z,4.10
2023-04-07T23:14:20.986Z,7.20
2023-04-07T23:16:47.538Z,7.20
2023-04-07T23:19:15.140Z,6.00
2023-04-07T23:21:42.960Z,5.30
2023-04-07T23:24:10.703Z,4.70
2023-04-07T23:26:39.237Z,5.30
2023-04-07T23:29:06.056Z,3.90
2023-04-07T23:31:35.885Z,5.80
2023-04-07T23:34:04.399Z,3.80
2023-04-07T23:36:33.055Z,6.70
2023-04-07T23:39:02.368Z,3.20
2023-04-07T23:41:31.227Z,3.80
2023-04-07T23:43:59.410Z,3.70
2023-04-07T23:46:28.943Z,3.10
2023-04-07T23:48:55.516Z,4.50
2023-04-07T23:51:24.864Z,5.00
2023-04-07T23:53:51.589Z,4.10
2023-04-07T23:56:17.989Z,4.90
2023-04-07T23:58:44.727Z,7.60
